createdAt,value
2022-10-13T00:00:32.604Z,6.83
2022-10-13T00:05:42.527Z,6.40
2022-10-13T00:10:47.607Z,6.67
2022-10-13T00:16:08.521Z,7.50
2022-10-13T00:26:48.429Z,6.90
2022-10-13T00:32:00.959Z,6.67
2022-10-13T00:37:06.206Z,7.27
2022-10-13T00:42:16.833Z,7.60
2022-10-13T00:47:29.007Z,6.57
2022-10-13T00:52:46.355Z,6.90
2022-10-13T00:58:12.045Z,7.30
2022-10-13T01:03:42.328Z,6.90
2022-10-13T01:08:48.650Z,6.53
2022-10-13T01:14:09.704Z,6.73
2022-10-13T01:19:46.655Z,6.93
2022-10-13T01:25:07.488Z,7.03
2022-10-13T01:30:27.559Z,7.13
2022-10-13T01:35:55.658Z,7.30
2022-10-13T01:41:07.149Z,7.47
2022-10-13T01:46:26.256Z,7.23
2022-10-13T01:51:52.288Z,7.37
2022-10-13T01:57:02.152Z,7.70
2022-10-13T02:02:48.793Z,7.20
2022-10-13T02:08:10.756Z,7.47
2022-10-13T02:13:25.683Z,7.47
2022-10-13T02:18:50.521Z,7.47
2022-10-13T02:24:07.320Z,8.30
2022-10-13T02:29:17.361Z,7.77
2022-10-13T02:34:29.072Z,7.50
2022-10-13T02:39:55.295Z,7.60
2022-10-13T02:45:05.591Z,7.77
2022-10-13T02:50:14.615Z,7.83
2022-10-13T02:55:24.672Z,7.70
2022-10-13T03:00:35.347Z,8.03
2022-10-13T03:05:58.132Z,7.97
2022-10-13T03:11:05.775Z,8.10
2022-10-13T03:16:25.950Z,7.77
2022-10-13T03:21:58.331Z,7.53
2022-10-13T03:27:24.983Z,8.30
2022-10-13T03:32:44.389Z,7.87
2022-10-13T03:37:59.696Z,7.83
2022-10-13T03:43:11.626Z,8.70
2022-10-13T03:48:22.993Z,8.67
2022-10-13T03:54:01.893Z,7.93
2022-10-13T03:59:24.902Z,8.83
2022-10-13T04:04:35.197Z,9.23
2022-10-13T04:09:56.871Z,7.63
2022-10-13T04:15:07.301Z,8.27
2022-10-13T04:20:30.944Z,9.07
2022-10-13T04:25:57.880Z,7.83
2022-10-13T04:31:21.468Z,8.97
2022-10-13T04:36:34.537Z,8.80
2022-10-13T04:41:46.075Z,9.80
2022-10-13T04:46:53.528Z,9.50
2022-10-13T04:52:13.324Z,9.33
2022-10-13T05:03:08.996Z,9.93
2022-10-13T05:08:18.623Z,10.60
2022-10-13T05:13:34.279Z,10.63
2022-10-13T05:18:43.493Z,12.10
2022-10-13T05:24:00.534Z,11.37
2022-10-13T05:29:30.130Z,11.30
2022-10-13T05:34:36.651Z,10.40
2022-10-13T05:39:43.732Z,10.90
2022-10-13T05:45:04.683Z,10.57
2022-10-13T05:56:15.021Z,10.83
2022-10-13T06:01:30.147Z,10.67
2022-10-13T06:06:43.925Z,11.37
2022-10-13T06:11:53.462Z,11.80
2022-10-13T06:17:05.489Z,11.80
2022-10-13T06:22:13.503Z,11.87
2022-10-13T06:27:31.593Z,12.37
2022-10-13T06:32:38.089Z,13.57
2022-10-13T06:37:54.513Z,12.77
2022-10-13T06:43:07.160Z,12.50
2022-10-13T06:48:22.194Z,11.63
2022-10-13T06:53:36.978Z,13.20
2022-10-13T06:58:51.855Z,13.30
2022-10-13T07:04:01.529Z,13.48
2022-10-13T07:09:09.588Z,13.48
2022-10-13T07:14:21.697Z,13.75
2022-10-13T07:19:50.129Z,13.55
2022-10-13T07:25:00.161Z,13.18
2022-10-13T07:30:18.392Z,13.20
2022-10-13T07:35:34.586Z,13.40
2022-10-13T07:41:02.729Z,13.38
2022-10-13T07:46:28.021Z,13.70
2022-10-13T07:51:43.456Z,13.40
2022-10-13T07:56:53.069Z,13.52
2022-10-13T08:02:05.160Z,13.85
2022-10-13T08:07:18.470Z,13.63
2022-10-13T08:12:34.346Z,12.50
2022-10-13T08:17:51.685Z,13.75
2022-10-13T08:23:14.994Z,13.27
2022-10-13T08:28:22.698Z,13.63
2022-10-13T08:33:36.840Z,12.38
2022-10-13T08:39:04.218Z,13.60
2022-10-13T08:45:02.612Z,12.93
2022-10-13T08:50:14.374Z,12.35
2022-10-13T08:55:31.984Z,13.02
2022-10-13T09:00:40.912Z,14.00
2022-10-13T09:06:04.428Z,13.23
2022-10-13T09:11:19.449Z,13.45
2022-10-13T09:16:31.404Z,12.95
2022-10-13T09:21:37.857Z,13.65
2022-10-13T09:27:20.572Z,13.38
2022-10-13T09:32:30.584Z,13.30
2022-10-13T09:37:38.609Z,12.82
2022-10-13T09:42:59.533Z,12.68
2022-10-13T09:48:12.695Z,13.73
2022-10-13T09:53:34.356Z,13.23
2022-10-13T09:58:59.652Z,12.35
2022-10-13T10:04:10.524Z,12.20
2022-10-13T10:09:40.508Z,12.77
2022-10-13T10:15:14.423Z,12.80
2022-10-13T10:21:00.632Z,11.98
2022-10-13T10:26:32.738Z,12.63
2022-10-13T10:31:55.507Z,12.88
2022-10-13T10:37:19.695Z,12.07
2022-10-13T10:42:55.943Z,11.10
2022-10-13T10:48:13.419Z,10.52
2022-10-13T10:53:38.826Z,9.65
2022-10-13T10:58:59.380Z,9.15
2022-10-13T11:04:56.895Z,10.07
2022-10-13T11:10:36.906Z,9.82
2022-10-13T11:16:05.074Z,9.50
2022-10-13T11:21:24.399Z,8.95
2022-10-13T11:26:44.864Z,9.02
2022-10-13T11:31:56.177Z,8.60
2022-10-13T11:37:21.361Z,9.50
2022-10-13T11:43:17.558Z,8.93
2022-10-13T11:49:08.934Z,9.20
2022-10-13T11:54:58.789Z,9.07
2022-10-13T12:00:32.208Z,8.57
2022-10-13T12:06:05.829Z,7.47
2022-10-13T12:11:31.255Z,7.15
2022-10-13T12:16:58.429Z,7.85
2022-10-13T12:22:05.392Z,8.30
2022-10-13T12:27:27.180Z,7.28
2022-10-13T12:32:50.101Z,7.07
2022-10-13T12:38:04.918Z,8.10
2022-10-13T12:43:30.768Z,7.00
2022-10-13T12:48:39.599Z,6.65
2022-10-13T12:53:47.146Z,6.93
2022-10-13T12:59:01.442Z,6.03
2022-10-13T13:04:22.649Z,6.63
2022-10-13T13:09:30.642Z,6.63
2022-10-13T13:14:53.019Z,7.28
2022-10-13T13:19:58.779Z,6.97
2022-10-13T13:25:07.738Z,6.78
2022-10-13T13:30:33.004Z,6.80
2022-10-13T13:35:48.273Z,5.22
2022-10-13T13:47:01.165Z,6.18
2022-10-13T13:52:36.779Z,6.07
2022-10-13T13:57:46.441Z,5.53
2022-10-13T14:03:10.703Z,5.95
2022-10-13T14:08:17.067Z,4.97
2022-10-13T14:13:36.742Z,5.38
2022-10-13T14:18:54.611Z,6.10
2022-10-13T14:24:10.685Z,5.45
2022-10-13T14:29:37.035Z,5.20
2022-10-13T14:34:51.719Z,5.40
2022-10-13T14:40:14.456Z,5.25
2022-10-13T14:45:47.328Z,5.20
2022-10-13T14:51:07.160Z,4.50
2022-10-13T14:56:38.484Z,5.18
2022-10-13T15:01:47.070Z,5.60
2022-10-13T15:07:06.495Z,6.45
2022-10-13T15:12:24.175Z,5.50
2022-10-13T15:17:36.088Z,5.47
2022-10-13T15:22:56.947Z,5.15
2022-10-13T15:28:17.251Z,6.20
2022-10-13T15:33:29.396Z,6.65
2022-10-13T15:38:41.023Z,6.20
2022-10-13T15:43:51.536Z,5.38
2022-10-13T15:49:09.647Z,6.28
2022-10-13T15:54:24.089Z,7.10
2022-10-13T15:59:30.715Z,6.20
2022-10-13T16:04:39.983Z,6.30
2022-10-13T16:09:55.201Z,6.15
2022-10-13T16:15:00.520Z,6.18
2022-10-13T16:20:07.513Z,5.85
2022-10-13T16:25:31.725Z,8.00
2022-10-13T16:30:44.349Z,6.10
2022-10-13T16:35:49.418Z,6.03
2022-10-13T16:41:09.193Z,6.72
2022-10-13T16:46:23.831Z,6.10
2022-10-13T16:51:29.648Z,6.55
2022-10-13T16:56:35.650Z,5.80
2022-10-13T17:01:46.838Z,5.55
2022-10-13T17:07:08.619Z,6.03
2022-10-13T17:12:31.139Z,5.50
2022-10-13T17:17:46.020Z,6.07
2022-10-13T17:23:00.611Z,6.03
2022-10-13T17:28:11.210Z,5.60
2022-10-13T17:39:16.480Z,5.38
2022-10-13T17:50:12.342Z,4.57
2022-10-13T17:55:21.616Z,4.75
2022-10-13T18:00:30.058Z,5.22
2022-10-13T18:05:37.268Z,5.25
2022-10-13T18:11:07.475Z,4.60
2022-10-13T18:16:17.941Z,5.25
2022-10-13T18:21:40.094Z,4.10
2022-10-13T18:32:28.524Z,5.47
2022-10-13T18:37:58.454Z,5.10
2022-10-13T18:43:12.333Z,5.38
2022-10-13T18:48:34.552Z,5.90
2022-10-13T18:53:39.336Z,5.07
2022-10-13T19:04:23.715Z,6.25
2022-10-13T19:09:51.692Z,7.28
2022-10-13T19:15:09.240Z,7.47
2022-10-13T19:20:21.782Z,8.75
2022-10-13T19:25:35.976Z,8.10
2022-10-13T19:30:44.135Z,9.90
2022-10-13T19:35:55.176Z,8.50
2022-10-13T19:41:08.572Z,9.02
2022-10-13T19:46:24.654Z,8.57
2022-10-13T19:51:33.862Z,7.03
2022-10-13T19:56:56.232Z,7.57
2022-10-13T20:02:11.518Z,7.25
2022-10-13T20:07:31.558Z,7.60
2022-10-13T20:13:05.312Z,7.95
2022-10-13T20:18:10.547Z,7.13
2022-10-13T20:23:20.203Z,7.35
2022-10-13T20:28:45.172Z,7.55
2022-10-13T20:34:01.419Z,6.97
2022-10-13T20:39:23.894Z,7.38
2022-10-13T20:44:52.058Z,7.53
2022-10-13T20:50:04.007Z,8.35
2022-10-13T20:55:17.829Z,7.63
2022-10-13T21:00:24.174Z,8.70
2022-10-13T21:05:44.797Z,8.38
2022-10-13T21:10:57.294Z,8.35
2022-10-13T21:16:16.595Z,8.52
2022-10-13T21:21:27.144Z,8.07
2022-10-13T21:26:38.649Z,9.15
2022-10-13T21:31:48.720Z,8.35
2022-10-13T21:36:55.762Z,8.73
2022-10-13T21:42:24.078Z,9.02
2022-10-13T21:47:53.433Z,9.05
2022-10-13T21:53:15.650Z,9.65
2022-10-13T21:58:36.609Z,9.68
2022-10-13T22:03:54.583Z,8.57
2022-10-13T22:09:10.135Z,9.80
2022-10-13T22:14:16.669Z,9.38
2022-10-13T22:24:55.342Z,9.70
2022-10-13T22:30:11.054Z,9.73
2022-10-13T22:35:21.991Z,8.90
2022-10-13T22:40:27.686Z,9.60
2022-10-13T22:45:42.439Z,8.40
2022-10-13T22:50:51.839Z,8.75
2022-10-13T22:56:11.279Z,9.80
2022-10-13T23:01:32.960Z,9.13
2022-10-13T23:06:38.694Z,9.63
2022-10-13T23:12:01.672Z,9.50
2022-10-13T23:17:08.502Z,9.43
2022-10-13T23:22:17.540Z,9.23
2022-10-13T23:27:32.050Z,9.10
2022-10-13T23:32:43.624Z,9.68
2022-10-13T23:37:58.212Z,9.85
2022-10-13T23:43:09.907Z,9.73
2022-10-13T23:48:24.269Z,9.93
2022-10-13T23:53:39.070Z,10.02
2022-10-13T23:58:59.361Z,10.00
